createdAt,value
2019-05-29T00:01:16.665Z,9.82
2019-05-29T00:03:46.001Z,9.82
2019-05-29T00:06:18.572Z,9.80
2019-05-29T00:08:52.010Z,9.77
2019-05-29T00:11:24.481Z,9.76
2019-05-29T00:13:58.293Z,9.75
2019-05-29T00:16:30.527Z,9.71
2019-05-29T00:19:02.735Z,9.69
2019-05-29T00:21:34.958Z,9.67
2019-05-29T00:24:08.259Z,9.68
2019-05-29T00:26:40.678Z,9.68
2019-05-29T00:29:14.103Z,9.68
2019-05-29T00:31:46.378Z,9.66
2019-05-29T00:34:20.849Z,9.66
2019-05-29T00:36:53.106Z,9.66
2019-05-29T00:39:25.380Z,9.68
2019-05-29T00:41:57.618Z,9.66
2019-05-29T00:44:34.630Z,9.67
2019-05-29T00:47:07.141Z,9.66
2019-05-29T00:49:39.589Z,9.64
2019-05-29T00:52:14.192Z,9.61
2019-05-29T00:54:46.509Z,9.61
2019-05-29T00:57:19.017Z,9.64
2019-05-29T00:59:53.366Z,9.64
2019-05-29T01:02:25.621Z,9.64
2019-05-29T01:04:57.821Z,9.65
2019-05-29T01:07:30.046Z,9.63
2019-05-29T01:10:03.428Z,9.58
2019-05-29T01:12:35.665Z,9.54
2019-05-29T01:15:07.876Z,9.50
2019-05-29T01:17:40.128Z,9.48
2019-05-29T01:20:12.346Z,9.46
2019-05-29T01:22:44.542Z,9.45
2019-05-29T01:25:16.761Z,9.43
2019-05-29T01:27:49.018Z,9.40
2019-05-29T01:30:21.337Z,9.38
2019-05-29T01:32:53.708Z,9.34
2019-05-29T01:35:26.042Z,9.30
2019-05-29T01:37:58.250Z,9.28
2019-05-29T01:40:30.499Z,9.25
2019-05-29T01:43:02.690Z,9.21
2019-05-29T01:45:34.900Z,9.15
2019-05-29T01:48:07.160Z,9.10
2019-05-29T01:50:39.364Z,9.08
2019-05-29T01:53:11.569Z,9.05
2019-05-29T01:55:43.769Z,9.02
2019-05-29T01:58:16.003Z,9.00
2019-05-29T02:00:48.263Z,8.99
2019-05-29T02:03:21.851Z,8.96
2019-05-29T02:05:54.235Z,8.92
2019-05-29T02:08:26.469Z,8.89
2019-05-29T02:11:00.960Z,8.85
2019-05-29T02:13:33.215Z,8.81
2019-05-29T02:16:05.429Z,8.78
2019-05-29T02:18:37.742Z,8.75
2019-05-29T02:21:10.092Z,8.74
2019-05-29T02:23:42.326Z,8.71
2019-05-29T02:26:14.539Z,8.64
2019-05-29T02:28:46.823Z,8.63
2019-05-29T02:31:21.856Z,8.59
2019-05-29T02:33:54.174Z,8.57
2019-05-29T02:36:28.785Z,8.52
2019-05-29T02:39:00.975Z,8.50
2019-05-29T02:41:34.894Z,8.47
2019-05-29T02:44:07.207Z,8.43
2019-05-29T02:46:39.431Z,8.42
2019-05-29T02:49:11.637Z,8.38
2019-05-29T02:51:43.867Z,8.35
2019-05-29T02:54:16.124Z,8.34
2019-05-29T02:56:48.390Z,8.30
2019-05-29T02:59:23.485Z,8.27
2019-05-29T03:01:56.227Z,8.23
2019-05-29T03:04:30.063Z,8.18
2019-05-29T03:07:02.386Z,8.13
2019-05-29T03:09:34.616Z,8.12
2019-05-29T03:12:06.800Z,8.11
2019-05-29T03:14:39.093Z,8.12
2019-05-29T03:17:11.310Z,8.13
2019-05-29T03:19:43.548Z,8.13
2019-05-29T03:22:15.754Z,8.11
2019-05-29T03:24:47.985Z,8.09
2019-05-29T03:27:20.235Z,8.09
2019-05-29T03:29:52.432Z,8.09
2019-05-29T03:32:27.235Z,8.10
2019-05-29T03:34:58.571Z,8.09
2019-05-29T03:37:34.314Z,8.10
2019-05-29T03:40:06.716Z,8.10
2019-05-29T03:42:39.311Z,8.11
2019-05-29T03:45:11.651Z,8.12
2019-05-29T03:47:43.845Z,8.13
2019-05-29T03:50:16.289Z,8.11
2019-05-29T03:52:48.610Z,8.09
2019-05-29T03:55:20.843Z,8.11
2019-05-29T03:57:53.033Z,8.17
2019-05-29T04:00:29.969Z,8.22
2019-05-29T04:02:59.197Z,8.26
2019-05-29T04:05:35.250Z,8.30
2019-05-29T04:08:07.370Z,8.35
2019-05-29T04:10:39.862Z,8.40
2019-05-29T04:13:12.185Z,8.46
2019-05-29T04:15:44.411Z,8.55
2019-05-29T04:18:19.833Z,8.59
2019-05-29T04:20:53.243Z,8.62
2019-05-29T04:23:25.443Z,8.66
2019-05-29T04:25:57.634Z,8.72
2019-05-29T04:28:30.332Z,8.75
2019-05-29T04:31:03.033Z,8.79
2019-05-29T04:33:36.667Z,8.84
2019-05-29T04:36:09.116Z,8.87
2019-05-29T04:38:41.335Z,8.94
2019-05-29T04:41:13.420Z,9.07
2019-05-29T04:43:45.664Z,9.20
2019-05-29T04:46:17.857Z,9.33
2019-05-29T04:48:52.153Z,9.44
2019-05-29T04:51:24.454Z,9.51
2019-05-29T04:53:56.659Z,9.60
2019-05-29T04:56:28.894Z,9.74
2019-05-29T04:59:01.144Z,9.84
2019-05-29T05:01:33.344Z,9.95
2019-05-29T05:04:05.656Z,10.05
2019-05-29T05:06:37.907Z,10.13
2019-05-29T05:09:10.133Z,10.22
2019-05-29T05:11:42.342Z,10.30
2019-05-29T05:14:14.556Z,10.40
2019-05-29T05:16:46.778Z,10.44
2019-05-29T05:19:19.013Z,10.50
2019-05-29T05:21:51.242Z,10.57
2019-05-29T05:24:23.539Z,10.61
2019-05-29T05:26:55.788Z,10.67
2019-05-29T05:29:28.008Z,10.71
2019-05-29T05:32:00.219Z,10.75
2019-05-29T05:34:32.641Z,10.83
2019-05-29T05:37:04.870Z,10.94
2019-05-29T05:39:37.334Z,10.98
2019-05-29T05:42:09.690Z,11.03
2019-05-29T05:44:42.363Z,11.04
2019-05-29T05:47:15.784Z,11.02
2019-05-29T05:49:47.904Z,11.05
2019-05-29T05:52:20.204Z,11.08
2019-05-29T05:54:52.475Z,11.09
2019-05-29T05:57:24.734Z,11.19
2019-05-29T05:59:56.975Z,11.29
2019-05-29T06:02:29.179Z,11.36
2019-05-29T06:05:01.398Z,11.40
2019-05-29T06:07:34.111Z,11.44
2019-05-29T06:10:07.507Z,11.50
2019-05-29T06:12:40.846Z,11.52
2019-05-29T06:15:14.251Z,11.62
2019-05-29T06:18:04.497Z,11.74
2019-05-29T06:20:20.530Z,11.79
2019-05-29T06:22:52.757Z,11.81
2019-05-29T06:25:24.969Z,11.87
2019-05-29T06:27:57.203Z,11.97
2019-05-29T06:30:29.507Z,12.01
2019-05-29T06:33:01.847Z,12.03
2019-05-29T06:35:34.547Z,12.08
2019-05-29T06:38:08.172Z,12.14
2019-05-29T06:40:40.412Z,12.20
2019-05-29T06:43:12.658Z,12.31
2019-05-29T06:45:44.931Z,12.36
2019-05-29T06:48:17.242Z,12.37
2019-05-29T06:50:49.444Z,12.43
2019-05-29T06:53:21.673Z,12.49
2019-05-29T06:55:55.722Z,12.46
2019-05-29T06:58:27.921Z,12.49
2019-05-29T07:01:00.148Z,12.51
2019-05-29T07:03:32.395Z,12.58
2019-05-29T07:06:04.887Z,12.64
2019-05-29T07:08:39.987Z,12.73
2019-05-29T07:11:11.134Z,12.75
2019-05-29T07:13:47.361Z,12.85
2019-05-29T07:16:17.421Z,12.94
2019-05-29T07:19:23.961Z,13.02
2019-05-29T07:21:23.695Z,13.19
2019-05-29T07:23:56.166Z,13.26
2019-05-29T07:26:28.420Z,13.27
2019-05-29T07:29:07.964Z,13.36
2019-05-29T07:31:34.567Z,13.40
2019-05-29T07:34:07.045Z,13.42
2019-05-29T07:36:41.820Z,13.46
2019-05-29T07:39:14.259Z,13.50
2019-05-29T07:41:47.715Z,13.55
2019-05-29T07:44:19.968Z,13.47
2019-05-29T07:46:54.326Z,13.27
2019-05-29T07:49:38.536Z,13.30
2019-05-29T07:52:00.557Z,13.37
2019-05-29T07:54:32.768Z,13.50
2019-05-29T07:57:05.059Z,13.65
2019-05-29T07:59:38.468Z,13.69
2019-05-29T08:02:10.866Z,13.66
2019-05-29T08:04:45.101Z,13.77
2019-05-29T08:07:17.515Z,13.91
2019-05-29T08:09:49.905Z,13.94
2019-05-29T08:12:22.224Z,13.97
2019-05-29T08:14:54.548Z,13.99
2019-05-29T08:17:27.176Z,14.04
2019-05-29T08:20:07.120Z,14.10
2019-05-29T08:22:34.887Z,14.13
2019-05-29T08:25:07.524Z,14.24
2019-05-29T08:27:40.970Z,14.21
2019-05-29T08:30:14.535Z,14.25
2019-05-29T08:32:47.049Z,14.40
2019-05-29T08:35:19.301Z,14.49
2019-05-29T08:37:51.549Z,14.49
2019-05-29T08:40:23.791Z,14.58
2019-05-29T08:42:55.996Z,14.70
2019-05-29T08:45:28.337Z,14.74
2019-05-29T08:48:00.622Z,14.71
2019-05-29T08:50:32.828Z,14.67
2019-05-29T08:53:05.093Z,14.67
2019-05-29T08:55:37.342Z,14.75
2019-05-29T08:58:09.587Z,14.87
2019-05-29T09:00:46.564Z,14.93
2019-05-29T09:03:15.755Z,14.98
2019-05-29T09:06:01.511Z,15.03
2019-05-29T09:08:21.956Z,15.19
2019-05-29T09:10:54.592Z,15.27
2019-05-29T09:13:26.804Z,15.36
2019-05-29T09:15:59.013Z,15.47
2019-05-29T09:18:31.262Z,15.54
2019-05-29T09:21:04.291Z,15.64
2019-05-29T09:23:36.918Z,15.71
2019-05-29T09:26:16.008Z,15.78
2019-05-29T09:28:43.090Z,15.83
2019-05-29T09:31:16.839Z,15.76
2019-05-29T09:33:49.291Z,15.78
2019-05-29T09:36:22.741Z,15.89
2019-05-29T09:38:55.268Z,15.96
2019-05-29T09:41:27.495Z,16.09
2019-05-29T09:44:00.388Z,16.28
2019-05-29T09:46:33.061Z,16.45
2019-05-29T09:49:05.251Z,16.50
2019-05-29T09:51:37.496Z,16.45
2019-05-29T09:54:09.773Z,16.49
2019-05-29T09:56:42.041Z,16.61
2019-05-29T09:59:14.257Z,16.69
2019-05-29T10:01:46.478Z,16.85
2019-05-29T10:04:18.680Z,17.04
2019-05-29T10:06:50.928Z,17.08
2019-05-29T10:09:23.155Z,17.08
2019-05-29T10:11:59.464Z,17.20
2019-05-29T10:14:29.491Z,17.23
2019-05-29T10:17:10.979Z,17.27
2019-05-29T10:19:37.811Z,17.34
2019-05-29T10:22:10.116Z,17.46
2019-05-29T10:24:42.337Z,17.35
2019-05-29T10:27:14.562Z,17.36
2019-05-29T10:29:50.268Z,17.49
2019-05-29T10:32:20.818Z,17.57
2019-05-29T10:34:53.111Z,17.69
2019-05-29T10:37:25.335Z,17.81
2019-05-29T10:39:57.637Z,17.94
2019-05-29T10:42:29.846Z,17.98
2019-05-29T10:45:02.129Z,18.06
2019-05-29T10:47:34.558Z,18.10
2019-05-29T10:50:06.976Z,18.13
2019-05-29T10:52:39.359Z,18.23
2019-05-29T10:55:11.570Z,18.31
2019-05-29T10:57:44.769Z,18.32
2019-05-29T11:00:17.279Z,18.37
2019-05-29T11:02:50.118Z,18.44
2019-05-29T11:05:23.545Z,18.57
2019-05-29T11:07:56.022Z,18.64
2019-05-29T11:10:28.348Z,18.71
2019-05-29T11:13:00.573Z,18.80
2019-05-29T11:15:32.828Z,18.90
2019-05-29T11:18:05.059Z,18.94
2019-05-29T11:20:39.303Z,19.05
2019-05-29T11:23:11.566Z,19.12
2019-05-29T11:25:43.926Z,19.16
2019-05-29T11:28:16.177Z,19.21
2019-05-29T11:30:48.673Z,19.35
2019-05-29T11:33:21.262Z,19.57
2019-05-29T11:36:00.805Z,19.65
2019-05-29T11:38:27.535Z,19.80
2019-05-29T11:41:24.681Z,20.16
2019-05-29T11:43:33.940Z,20.40
2019-05-29T11:46:06.170Z,20.31
2019-05-29T11:48:38.437Z,20.32
2019-05-29T11:51:10.684Z,20.71
2019-05-29T11:53:42.896Z,21.48
2019-05-29T11:56:16.265Z,24.39
2019-05-29T11:58:48.404Z,27.06
2019-05-29T12:01:20.613Z,28.21
2019-05-29T12:04:14.114Z,28.96
2019-05-29T12:06:27.371Z,30.50
2019-05-29T12:09:00.209Z,31.55
2019-05-29T12:11:33.260Z,32.31
2019-05-29T12:14:06.017Z,33.17
2019-05-29T12:16:38.888Z,33.99
2019-05-29T12:19:11.819Z,34.39
2019-05-29T12:21:44.832Z,34.97
2019-05-29T12:24:17.744Z,35.30
2019-05-29T12:26:50.545Z,35.48
2019-05-29T12:29:23.372Z,35.71
2019-05-29T12:31:57.066Z,35.92
2019-05-29T12:34:30.005Z,35.94
2019-05-29T12:37:03.860Z,36.10
2019-05-29T12:39:38.515Z,33.64
2019-05-29T12:42:11.293Z,34.09
2019-05-29T12:44:47.378Z,35.31
2019-05-29T12:47:20.169Z,36.33
2019-05-29T12:49:53.680Z,37.12
2019-05-29T12:52:26.694Z,36.05
2019-05-29T12:55:00.053Z,36.25
2019-05-29T12:57:32.910Z,36.78
2019-05-29T13:00:05.830Z,35.71
2019-05-29T13:02:38.697Z,35.11
2019-05-29T13:05:19.204Z,33.10
2019-05-29T13:07:46.034Z,30.91
2019-05-29T13:10:29.842Z,32.98
2019-05-29T13:12:58.993Z,33.41
2019-05-29T13:15:28.119Z,33.23
2019-05-29T13:18:06.344Z,35.20
2019-05-29T13:20:35.822Z,36.25
2019-05-29T13:23:08.671Z,33.63
2019-05-29T13:25:41.654Z,31.91
2019-05-29T13:28:14.483Z,31.80
2019-05-29T13:30:47.291Z,31.74
2019-05-29T13:33:20.126Z,30.29
2019-05-29T13:35:52.920Z,32.96
2019-05-29T13:38:25.743Z,35.08
2019-05-29T13:40:58.533Z,35.86
2019-05-29T13:43:31.603Z,36.44
2019-05-29T13:46:04.703Z,37.45
2019-05-29T13:48:37.802Z,37.09
2019-05-29T13:51:10.599Z,38.21
2019-05-29T13:53:43.484Z,39.02
2019-05-29T13:56:16.322Z,38.98
2019-05-29T13:58:49.129Z,39.28
2019-05-29T14:01:21.962Z,38.74
2019-05-29T14:03:54.812Z,38.74
2019-05-29T14:06:27.613Z,34.83
2019-05-29T14:09:02.931Z,31.69
2019-05-29T14:11:36.554Z,29.90
2019-05-29T14:14:11.231Z,28.28
2019-05-29T14:16:42.717Z,27.22
2019-05-29T14:19:15.060Z,26.32
2019-05-29T14:21:47.467Z,25.83
2019-05-29T14:24:28.656Z,25.41
2019-05-29T14:26:53.595Z,24.88
2019-05-29T14:29:25.858Z,24.45
2019-05-29T14:31:59.181Z,24.22
2019-05-29T14:34:31.467Z,23.81
2019-05-29T14:37:04.933Z,23.58
2019-05-29T14:39:37.688Z,23.43
2019-05-29T14:42:10.295Z,23.37
2019-05-29T14:44:42.546Z,23.17
2019-05-29T14:47:14.868Z,23.32
2019-05-29T14:49:47.092Z,23.66
2019-05-29T14:52:19.312Z,23.82
2019-05-29T14:54:51.609Z,23.81
2019-05-29T14:57:26.259Z,23.49
2019-05-29T14:59:58.322Z,23.11
2019-05-29T15:02:30.583Z,23.15
2019-05-29T15:05:03.742Z,23.26
2019-05-29T15:07:36.393Z,22.97
2019-05-29T15:10:21.991Z,22.95
2019-05-29T15:12:42.866Z,23.02
2019-05-29T15:15:16.485Z,23.03
2019-05-29T15:17:49.040Z,23.02
2019-05-29T15:20:21.257Z,22.96
2019-05-29T15:22:53.797Z,22.96
2019-05-29T15:25:26.067Z,22.90
2019-05-29T15:27:58.473Z,22.79
2019-05-29T15:30:30.680Z,22.58
2019-05-29T15:33:03.080Z,22.47
2019-05-29T15:35:35.328Z,22.41
2019-05-29T15:38:08.666Z,22.38
2019-05-29T15:40:41.103Z,22.29
2019-05-29T15:43:13.392Z,22.28
2019-05-29T15:45:45.674Z,22.28
2019-05-29T15:48:17.895Z,22.33
2019-05-29T15:50:52.006Z,22.30
2019-05-29T15:53:24.293Z,22.23
2019-05-29T15:55:56.572Z,22.22
2019-05-29T15:58:28.862Z,22.22
2019-05-29T16:01:01.127Z,22.31
2019-05-29T16:03:33.719Z,22.49
2019-05-29T16:06:05.962Z,22.61
2019-05-29T16:08:38.209Z,22.68
2019-05-29T16:11:10.644Z,22.75
2019-05-29T16:13:42.866Z,22.70
2019-05-29T16:16:15.336Z,22.84
2019-05-29T16:18:47.896Z,22.83
2019-05-29T16:21:21.153Z,22.76
2019-05-29T16:23:53.492Z,22.69
2019-05-29T16:26:25.906Z,23.13
2019-05-29T16:28:58.350Z,23.66
2019-05-29T16:31:30.598Z,23.63
2019-05-29T16:34:02.976Z,23.64
2019-05-29T16:36:35.214Z,23.62
2019-05-29T16:39:07.392Z,23.37
2019-05-29T16:41:39.862Z,23.46
2019-05-29T16:44:12.177Z,23.31
2019-05-29T16:46:45.502Z,23.30
2019-05-29T16:49:18.709Z,23.69
2019-05-29T16:51:51.189Z,23.90
2019-05-29T16:54:23.402Z,24.99
2019-05-29T16:56:55.788Z,27.13
2019-05-29T16:59:29.920Z,28.83
2019-05-29T17:02:02.881Z,30.04
2019-05-29T17:04:35.698Z,30.97
2019-05-29T17:07:08.571Z,31.63
2019-05-29T17:09:41.377Z,31.02
2019-05-29T17:12:14.321Z,28.99
2019-05-29T17:14:46.837Z,27.09
2019-05-29T17:17:19.118Z,25.93
2019-05-29T17:19:51.397Z,26.35
2019-05-29T17:22:24.907Z,27.93
2019-05-29T17:24:57.816Z,29.49
2019-05-29T17:27:30.736Z,30.58
2019-05-29T17:30:03.562Z,30.75
2019-05-29T17:32:36.688Z,29.98
2019-05-29T17:35:09.891Z,29.65
2019-05-29T17:37:43.046Z,28.95
2019-05-29T17:40:16.989Z,29.27
2019-05-29T17:42:50.228Z,28.82
2019-05-29T17:45:25.617Z,27.51
2019-05-29T17:47:57.376Z,26.14
2019-05-29T17:50:30.477Z,24.90
2019-05-29T17:53:02.888Z,23.81
2019-05-29T17:55:35.111Z,22.90
2019-05-29T17:58:07.404Z,22.23
2019-05-29T18:00:39.938Z,21.75
2019-05-29T18:03:12.299Z,21.37
2019-05-29T18:05:44.875Z,21.05
2019-05-29T18:08:18.578Z,20.85
2019-05-29T18:10:52.205Z,20.68
2019-05-29T18:13:25.327Z,20.56
2019-05-29T18:15:57.684Z,20.46
2019-05-29T18:18:29.894Z,20.35
2019-05-29T18:21:02.239Z,20.31
2019-05-29T18:23:34.547Z,20.27
2019-05-29T18:26:06.823Z,20.21
2019-05-29T18:28:39.033Z,20.14
2019-05-29T18:31:11.471Z,20.03
2019-05-29T18:33:43.764Z,19.95
2019-05-29T18:36:16.026Z,19.86
2019-05-29T18:38:48.287Z,19.79
2019-05-29T18:41:20.504Z,19.74
2019-05-29T18:43:52.732Z,19.68
2019-05-29T18:46:25.229Z,19.60
2019-05-29T18:48:57.456Z,19.50
2019-05-29T18:51:29.688Z,19.44
2019-05-29T18:54:01.965Z,19.44
2019-05-29T18:56:34.263Z,19.46
2019-05-29T18:59:06.977Z,19.48
2019-05-29T19:01:39.318Z,19.54
2019-05-29T19:04:11.711Z,19.49
2019-05-29T19:06:44.103Z,19.45
2019-05-29T19:09:16.329Z,19.41
2019-05-29T19:11:48.596Z,19.20
2019-05-29T19:14:21.752Z,18.98
2019-05-29T19:16:55.228Z,18.87
2019-05-29T19:19:28.363Z,18.64
2019-05-29T19:22:00.819Z,18.36
2019-05-29T19:24:33.204Z,18.13
2019-05-29T19:27:05.406Z,17.94
2019-05-29T19:29:37.657Z,17.87
2019-05-29T19:32:10.779Z,17.81
2019-05-29T19:34:43.055Z,17.79
2019-05-29T19:37:15.411Z,17.78
2019-05-29T19:39:47.584Z,17.82
2019-05-29T19:42:19.855Z,17.79
2019-05-29T19:44:52.127Z,17.76
2019-05-29T19:47:26.540Z,17.72
2019-05-29T19:49:58.890Z,17.72
2019-05-29T19:52:31.265Z,17.59
2019-05-29T19:55:03.664Z,17.47
2019-05-29T19:57:54.161Z,17.41
2019-05-29T20:00:09.963Z,17.32
2019-05-29T20:02:42.499Z,17.29
2019-05-29T20:05:14.725Z,17.29
2019-05-29T20:07:46.971Z,17.27
2019-05-29T20:10:20.272Z,17.22
2019-05-29T20:12:52.511Z,17.09
2019-05-29T20:15:24.759Z,17.05
2019-05-29T20:17:57.088Z,17.08
2019-05-29T20:20:30.359Z,17.10
2019-05-29T20:23:02.754Z,17.14
2019-05-29T20:25:35.047Z,17.17
2019-05-29T20:28:07.286Z,17.24
2019-05-29T20:30:39.624Z,17.29
2019-05-29T20:33:12.069Z,17.30
2019-05-29T20:35:44.329Z,17.29
2019-05-29T20:38:16.553Z,17.27
2019-05-29T20:40:48.930Z,17.29
2019-05-29T20:43:21.252Z,17.28
2019-05-29T20:45:54.498Z,17.26
2019-05-29T20:48:26.947Z,17.22
2019-05-29T20:50:59.200Z,17.23
2019-05-29T20:53:33.402Z,17.27
2019-05-29T20:56:05.800Z,17.28
2019-05-29T20:58:38.040Z,17.28
2019-05-29T21:01:10.264Z,17.27
2019-05-29T21:03:42.661Z,17.24
2019-05-29T21:06:15.144Z,17.23
2019-05-29T21:08:47.367Z,17.21
2019-05-29T21:11:19.595Z,17.17
2019-05-29T21:13:52.242Z,17.11
2019-05-29T21:16:24.473Z,17.10
2019-05-29T21:18:56.704Z,17.09
2019-05-29T21:21:28.956Z,17.05
2019-05-29T21:24:01.234Z,17.03
2019-05-29T21:26:34.944Z,16.96
2019-05-29T21:29:07.987Z,16.93
2019-05-29T21:31:41.631Z,16.94
2019-05-29T21:34:14.144Z,16.94
2019-05-29T21:36:46.810Z,16.92
2019-05-29T21:39:19.041Z,16.92
2019-05-29T21:41:52.383Z,16.90
2019-05-29T21:44:24.802Z,16.88
2019-05-29T21:46:57.020Z,16.84
2019-05-29T21:49:31.550Z,16.83
2019-05-29T21:52:03.312Z,16.82
2019-05-29T21:54:35.610Z,16.77
2019-05-29T21:57:07.796Z,16.70
2019-05-29T21:59:48.120Z,16.65
2019-05-29T22:02:21.363Z,16.60
2019-05-29T22:04:53.866Z,16.51
2019-05-29T22:07:26.105Z,16.47
2019-05-29T22:09:58.721Z,16.47
2019-05-29T22:12:31.073Z,16.48
2019-05-29T22:15:04.074Z,16.48
2019-05-29T22:17:38.856Z,16.47
2019-05-29T22:20:11.073Z,16.45
2019-05-29T22:22:43.315Z,16.42
2019-05-29T22:25:15.559Z,16.42
2019-05-29T22:27:47.784Z,16.42
2019-05-29T22:30:20.025Z,16.43
2019-05-29T22:32:53.283Z,16.45
2019-05-29T22:35:25.603Z,16.44
2019-05-29T22:37:57.854Z,16.42
2019-05-29T22:40:30.077Z,16.40
2019-05-29T22:43:02.418Z,16.39
2019-05-29T22:45:34.866Z,16.36
2019-05-29T22:48:07.142Z,16.35
2019-05-29T22:50:39.392Z,16.35
2019-05-29T22:53:11.712Z,16.33
2019-05-29T22:55:43.947Z,16.31
2019-05-29T22:58:16.170Z,16.30
2019-05-29T23:00:48.398Z,16.30
2019-05-29T23:03:21.056Z,16.29
2019-05-29T23:05:54.273Z,16.27
2019-05-29T23:08:26.536Z,16.28
2019-05-29T23:10:58.768Z,16.27
2019-05-29T23:13:30.997Z,16.27
2019-05-29T23:16:03.950Z,16.26
2019-05-29T23:18:37.261Z,16.25
2019-05-29T23:21:09.501Z,16.26
2019-05-29T23:23:41.717Z,16.23
2019-05-29T23:26:13.973Z,16.22
2019-05-29T23:28:46.418Z,16.21
2019-05-29T23:31:18.965Z,16.20
2019-05-29T23:33:51.195Z,16.19
2019-05-29T23:36:23.406Z,16.21
2019-05-29T23:38:55.660Z,16.22
2019-05-29T23:41:27.868Z,16.22
2019-05-29T23:44:00.115Z,16.21
2019-05-29T23:46:32.366Z,16.20
2019-05-29T23:49:04.591Z,16.14
2019-05-29T23:51:36.851Z,16.08
2019-05-29T23:54:09.104Z,16.05
2019-05-29T23:56:41.332Z,16.05
2019-05-29T23:59:13.542Z,16.07
